sensor_id;sensor_type;location;lat;lon;timestamp;P1;durP1;ratioP1;P2;durP2;ratioP2
23668;SDS011;12011;47.422;15.018;2024-03-02T00:00:59;10.35;;;10.23;;
23668;SDS011;12011;47.422;15.018;2024-03-02T00:03:41;9.56;;;9.51;;
23668;SDS011;12011;47.422;15.018;2024-03-02T00:06:15;8.67;;;8.60;;
23668;SDS011;12011;47.422;15.018;2024-03-02T00:08:58;8.63;;;8.57;;
23668;SDS011;12011;47.422;15.018;2024-03-02T00:11:44;8.90;;;8.83;;
23668;SDS011;12011;47.422;15.018;2024-03-02T00:14:16;9.26;;;9.17;;
23668;SDS011;12011;47.422;15.018;2024-03-02T00:17:04;8.62;;;8.58;;
23668;SDS011;12011;47.422;15.018;2024-03-02T00:20:01;7.92;;;7.87;;
23668;SDS011;12011;47.422;15.018;2024-03-02T00:22:43;7.59;;;7.55;;
23668;SDS011;12011;47.422;15.018;2024-03-02T00:25:32;7.96;;;7.92;;
23668;SDS011;12011;47.422;15.018;2024-03-02T00:28:15;7.21;;;7.10;;
23668;SDS011;12011;47.422;15.018;2024-03-02T00:30:56;6.06;;;6.03;;
23668;SDS011;12011;47.422;15.018;2024-03-02T00:33:30;8.01;;;7.92;;
23668;SDS011;12011;47.422;15.018;2024-03-02T00:36:04;8.66;;;8.53;;
23668;SDS011;12011;47.422;15.018;2024-03-02T00:38:42;6.84;;;6.80;;
23668;SDS011;12011;47.422;15.018;2024-03-02T00:41:20;6.74;;;6.74;;
23668;SDS011;12011;47.422;15.018;2024-03-02T00:44:07;7.92;;;7.89;;
23668;SDS011;12011;47.422;15.018;2024-03-02T00:46:47;7.30;;;7.29;;
23668;SDS011;12011;47.422;15.018;2024-03-02T00:49:29;6.90;;;6.86;;
23668;SDS011;12011;47.422;15.018;2024-03-02T00:52:00;6.53;;;6.51;;
23668;SDS011;12011;47.422;15.018;2024-03-02T00:54:32;6.98;;;6.98;;
23668;SDS011;12011;47.422;15.018;2024-03-02T00:57:07;7.15;;;7.14;;
23668;SDS011;12011;47.422;15.018;2024-03-02T00:59:41;8.72;;;8.58;;
23668;SDS011;12011;47.422;15.018;2024-03-02T01:02:16;8.21;;;8.19;;
23668;SDS011;12011;47.422;15.018;2024-03-02T01:04:53;6.99;;;6.95;;
23668;SDS011;12011;47.422;15.018;2024-03-02T01:07:27;8.70;;;8.61;;
23668;SDS011;12011;47.422;15.018;2024-03-02T01:09:57;6.87;;;6.82;;
23668;SDS011;12011;47.422;15.018;2024-03-02T01:12:33;6.45;;;6.36;;
23668;SDS011;12011;47.422;15.018;2024-03-02T01:15:08;6.76;;;6.64;;
23668;SDS011;12011;47.422;15.018;2024-03-02T01:17:43;7.49;;;7.40;;
23668;SDS011;12011;47.422;15.018;2024-03-02T01:20:19;7.92;;;7.86;;
23668;SDS011;12011;47.422;15.018;2024-03-02T01:22:50;5.94;;;5.93;;
23668;SDS011;12011;47.422;15.018;2024-03-02T01:25:23;6.06;;;6.01;;
23668;SDS011;12011;47.422;15.018;2024-03-02T01:27:56;6.34;;;6.24;;
23668;SDS011;12011;47.422;15.018;2024-03-02T01:30:32;6.08;;;6.01;;
23668;SDS011;12011;47.422;15.018;2024-03-02T01:33:05;6.32;;;6.32;;
23668;SDS011;12011;47.422;15.018;2024-03-02T01:35:43;6.37;;;6.37;;
23668;SDS011;12011;47.422;15.018;2024-03-02T01:38:13;5.85;;;5.84;;
23668;SDS011;12011;47.422;15.018;2024-03-02T01:40:45;5.81;;;5.77;;
23668;SDS011;12011;47.422;15.018;2024-03-02T01:43:19;6.34;;;6.34;;
23668;SDS011;12011;47.422;15.018;2024-03-02T01:45:54;7.25;;;7.24;;
23668;SDS011;12011;47.422;15.018;2024-03-02T01:48:29;6.25;;;6.23;;
23668;SDS011;12011;47.422;15.018;2024-03-02T01:50:59;5.82;;;5.78;;
23668;SDS011;12011;47.422;15.018;2024-03-02T01:53:32;5.69;;;5.67;;
23668;SDS011;12011;47.422;15.018;2024-03-02T01:56:07;5.86;;;5.83;;
23668;SDS011;12011;47.422;15.018;2024-03-02T01:58:41;6.09;;;6.09;;
23668;SDS011;12011;47.422;15.018;2024-03-02T02:01:16;5.99;;;5.98;;
23668;SDS011;12011;47.422;15.018;2024-03-02T02:03:50;6.34;;;6.30;;
23668;SDS011;12011;47.422;15.018;2024-03-02T02:06:29;6.35;;;6.35;;
23668;SDS011;12011;47.422;15.018;2024-03-02T02:09:06;6.33;;;6.33;;
23668;SDS011;12011;47.422;15.018;2024-03-02T02:11:43;6.66;;;6.66;;
23668;SDS011;12011;47.422;15.018;2024-03-02T02:14:24;6.93;;;6.93;;
23668;SDS011;12011;47.422;15.018;2024-03-02T02:17:04;7.13;;;7.13;;
23668;SDS011;12011;47.422;15.018;2024-03-02T02:19:40;7.11;;;7.07;;
23668;SDS011;12011;47.422;15.018;2024-03-02T02:22:14;6.32;;;6.32;;
23668;SDS011;12011;47.422;15.018;2024-03-02T02:24:46;6.38;;;6.38;;
23668;SDS011;12011;47.422;15.018;2024-03-02T02:27:19;6.18;;;6.17;;
23668;SDS011;12011;47.422;15.018;2024-03-02T02:29:51;5.77;;;5.77;;
23668;SDS011;12011;47.422;15.018;2024-03-02T02:32:21;6.16;;;6.16;;
23668;SDS011;12011;47.422;15.018;2024-03-02T02:34:52;6.40;;;6.39;;
23668;SDS011;12011;47.422;15.018;2024-03-02T02:37:33;6.47;;;6.35;;
23668;SDS011;12011;47.422;15.018;2024-03-02T02:40:03;5.95;;;5.91;;
23668;SDS011;12011;47.422;15.018;2024-03-02T02:42:44;6.32;;;6.32;;
23668;SDS011;12011;47.422;15.018;2024-03-02T02:45:20;6.32;;;6.32;;
23668;SDS011;12011;47.422;15.018;2024-03-02T02:48:02;6.17;;;6.17;;
23668;SDS011;12011;47.422;15.018;2024-03-02T02:50:36;6.06;;;5.98;;
23668;SDS011;12011;47.422;15.018;2024-03-02T02:53:13;6.35;;;6.34;;
23668;SDS011;12011;47.422;15.018;2024-03-02T02:55:54;6.76;;;6.75;;
23668;SDS011;12011;47.422;15.018;2024-03-02T02:58:31;8.47;;;8.38;;
23668;SDS011;12011;47.422;15.018;2024-03-02T03:01:11;9.86;;;9.80;;
23668;SDS011;12011;47.422;15.018;2024-03-02T03:03:42;9.97;;;9.94;;
23668;SDS011;12011;47.422;15.018;2024-03-02T03:06:18;9.94;;;9.90;;
23668;SDS011;12011;47.422;15.018;2024-03-02T03:08:55;9.41;;;9.34;;
23668;SDS011;12011;47.422;15.018;2024-03-02T03:11:29;8.91;;;8.79;;
23668;SDS011;12011;47.422;15.018;2024-03-02T03:13:59;8.97;;;8.90;;
23668;SDS011;12011;47.422;15.018;2024-03-02T03:16:33;8.41;;;8.39;;
23668;SDS011;12011;47.422;15.018;2024-03-02T03:19:10;7.56;;;7.55;;
23668;SDS011;12011;47.422;15.018;2024-03-02T03:21:47;7.12;;;7.07;;
23668;SDS011;12011;47.422;15.018;2024-03-02T03:24:19;7.65;;;7.60;;
23668;SDS011;12011;47.422;15.018;2024-03-02T03:26:53;7.00;;;7.00;;
23668;SDS011;12011;47.422;15.018;2024-03-02T03:29:33;6.38;;;6.38;;
23668;SDS011;12011;47.422;15.018;2024-03-02T03:32:23;6.97;;;6.97;;
23668;SDS011;12011;47.422;15.018;2024-03-02T03:34:58;6.69;;;6.69;;
23668;SDS011;12011;47.422;15.018;2024-03-02T03:37:39;6.77;;;6.77;;
23668;SDS011;12011;47.422;15.018;2024-03-02T03:40:41;10.47;;;10.43;;
23668;SDS011;12011;47.422;15.018;2024-03-02T03:43:14;8.69;;;8.67;;
23668;SDS011;12011;47.422;15.018;2024-03-02T03:45:49;13.19;;;13.08;;
23668;SDS011;12011;47.422;15.018;2024-03-02T03:48:21;10.73;;;10.56;;
23668;SDS011;12011;47.422;15.018;2024-03-02T03:50:57;8.18;;;8.15;;
23668;SDS011;12011;47.422;15.018;2024-03-02T03:53:40;6.69;;;6.69;;
23668;SDS011;12011;47.422;15.018;2024-03-02T03:56:12;6.75;;;6.75;;
23668;SDS011;12011;47.422;15.018;2024-03-02T03:58:46;6.65;;;6.58;;
23668;SDS011;12011;47.422;15.018;2024-03-02T04:01:18;7.83;;;7.81;;
23668;SDS011;12011;47.422;15.018;2024-03-02T04:03:51;8.34;;;8.30;;
23668;SDS011;12011;47.422;15.018;2024-03-02T04:06:24;8.03;;;8.01;;
23668;SDS011;12011;47.422;15.018;2024-03-02T04:08:58;8.73;;;8.68;;
23668;SDS011;12011;47.422;15.018;2024-03-02T04:11:32;8.46;;;8.43;;
23668;SDS011;12011;47.422;15.018;2024-03-02T04:14:04;8.85;;;8.84;;
23668;SDS011;12011;47.422;15.018;2024-03-02T04:16:38;8.54;;;8.44;;
23668;SDS011;12011;47.422;15.018;2024-03-02T04:19:13;8.10;;;8.07;;
23668;SDS011;12011;47.422;15.018;2024-03-02T04:21:46;8.51;;;8.37;;
23668;SDS011;12011;47.422;15.018;2024-03-02T04:24:16;8.16;;;8.12;;
23668;SDS011;12011;47.422;15.018;2024-03-02T04:26:51;9.48;;;9.45;;
23668;SDS011;12011;47.422;15.018;2024-03-02T04:29:21;10.89;;;10.77;;
23668;SDS011;12011;47.422;15.018;2024-03-02T04:31:57;10.88;;;10.77;;
23668;SDS011;12011;47.422;15.018;2024-03-02T04:34:35;9.55;;;9.44;;
23668;SDS011;12011;47.422;15.018;2024-03-02T04:37:06;7.43;;;7.42;;
23668;SDS011;12011;47.422;15.018;2024-03-02T04:39:48;7.13;;;7.11;;
23668;SDS011;12011;47.422;15.018;2024-03-02T04:42:28;7.22;;;7.21;;
23668;SDS011;12011;47.422;15.018;2024-03-02T04:45:00;8.95;;;8.84;;
23668;SDS011;12011;47.422;15.018;2024-03-02T04:47:34;13.87;;;13.70;;
23668;SDS011;12011;47.422;15.018;2024-03-02T04:50:08;14.92;;;14.84;;
23668;SDS011;12011;47.422;15.018;2024-03-02T04:52:38;15.35;;;15.22;;
23668;SDS011;12011;47.422;15.018;2024-03-02T04:55:10;14.85;;;14.80;;
23668;SDS011;12011;47.422;15.018;2024-03-02T04:58:07;14.73;;;14.69;;
23668;SDS011;12011;47.422;15.018;2024-03-02T05:00:44;14.70;;;14.61;;
23668;SDS011;12011;47.422;15.018;2024-03-02T05:03:31;14.21;;;14.11;;
23668;SDS011;12011;47.422;15.018;2024-03-02T05:06:01;14.02;;;13.85;;
23668;SDS011;12011;47.422;15.018;2024-03-02T05:08:40;13.64;;;13.49;;
23668;SDS011;12011;47.422;15.018;2024-03-02T05:11:11;13.02;;;12.90;;
23668;SDS011;12011;47.422;15.018;2024-03-02T05:14:08;12.87;;;12.75;;
23668;SDS011;12011;47.422;15.018;2024-03-02T05:16:43;12.55;;;12.41;;
23668;SDS011;12011;47.422;15.018;2024-03-02T05:19:13;13.12;;;13.00;;
23668;SDS011;12011;47.422;15.018;2024-03-02T05:21:47;12.95;;;12.77;;
23668;SDS011;12011;47.422;15.018;2024-03-02T05:24:25;12.98;;;12.77;;
23668;SDS011;12011;47.422;15.018;2024-03-02T05:27:01;12.02;;;11.93;;
23668;SDS011;12011;47.422;15.018;2024-03-02T05:29:35;13.92;;;13.86;;
23668;SDS011;12011;47.422;15.018;2024-03-02T05:32:07;13.49;;;13.38;;
23668;SDS011;12011;47.422;15.018;2024-03-02T05:34:41;12.83;;;12.71;;
23668;SDS011;12011;47.422;15.018;2024-03-02T05:37:13;10.60;;;10.39;;
23668;SDS011;12011;47.422;15.018;2024-03-02T05:40:06;10.73;;;10.67;;
23668;SDS011;12011;47.422;15.018;2024-03-02T05:42:40;10.01;;;9.97;;
23668;SDS011;12011;47.422;15.018;2024-03-02T05:45:21;9.48;;;9.41;;
23668;SDS011;12011;47.422;15.018;2024-03-02T05:47:53;9.46;;;9.38;;
23668;SDS011;12011;47.422;15.018;2024-03-02T05:50:24;9.17;;;9.16;;
23668;SDS011;12011;47.422;15.018;2024-03-02T05:52:55;9.48;;;9.46;;
23668;SDS011;12011;47.422;15.018;2024-03-02T05:55:32;9.42;;;9.38;;
23668;SDS011;12011;47.422;15.018;2024-03-02T05:58:06;12.71;;;12.66;;
23668;SDS011;12011;47.422;15.018;2024-03-02T06:00:54;15.18;;;15.03;;
23668;SDS011;12011;47.422;15.018;2024-03-02T06:03:27;13.41;;;13.35;;
23668;SDS011;12011;47.422;15.018;2024-03-02T06:06:00;13.50;;;13.36;;
23668;SDS011;12011;47.422;15.018;2024-03-02T06:08:32;13.34;;;13.27;;
23668;SDS011;12011;47.422;15.018;2024-03-02T06:11:05;14.56;;;14.44;;
23668;SDS011;12011;47.422;15.018;2024-03-02T06:13:35;14.80;;;14.67;;
23668;SDS011;12011;47.422;15.018;2024-03-02T06:16:20;14.24;;;14.09;;
23668;SDS011;12011;47.422;15.018;2024-03-02T06:18:50;14.42;;;14.18;;
23668;SDS011;12011;47.422;15.018;2024-03-02T06:21:21;13.89;;;13.75;;
23668;SDS011;12011;47.422;15.018;2024-03-02T06:23:50;14.51;;;14.34;;
23668;SDS011;12011;47.422;15.018;2024-03-02T06:26:31;14.62;;;14.49;;
23668;SDS011;12011;47.422;15.018;2024-03-02T06:29:00;14.71;;;14.60;;
23668;SDS011;12011;47.422;15.018;2024-03-02T06:31:36;14.03;;;13.87;;
23668;SDS011;12011;47.422;15.018;2024-03-02T06:34:07;12.70;;;12.59;;
23668;SDS011;12011;47.422;15.018;2024-03-02T06:36:36;12.37;;;12.29;;
23668;SDS011;12011;47.422;15.018;2024-03-02T06:39:08;12.43;;;12.37;;
23668;SDS011;12011;47.422;15.018;2024-03-02T06:41:38;13.88;;;13.81;;
23668;SDS011;12011;47.422;15.018;2024-03-02T06:44:08;13.48;;;13.41;;
23668;SDS011;12011;47.422;15.018;2024-03-02T06:46:40;13.16;;;13.12;;
23668;SDS011;12011;47.422;15.018;2024-03-02T06:49:09;12.72;;;12.65;;
23668;SDS011;12011;47.422;15.018;2024-03-02T06:51:38;13.09;;;12.99;;
23668;SDS011;12011;47.422;15.018;2024-03-02T06:54:08;12.54;;;12.45;;
23668;SDS011;12011;47.422;15.018;2024-03-02T06:56:37;13.46;;;13.39;;
23668;SDS011;12011;47.422;15.018;2024-03-02T06:59:07;13.96;;;13.91;;
23668;SDS011;12011;47.422;15.018;2024-03-02T07:01:36;14.95;;;14.95;;
23668;SDS011;12011;47.422;15.018;2024-03-02T07:04:09;13.78;;;13.67;;
23668;SDS011;12011;47.422;15.018;2024-03-02T07:06:38;13.67;;;13.57;;
23668;SDS011;12011;47.422;15.018;2024-03-02T07:09:07;13.84;;;13.68;;
23668;SDS011;12011;47.422;15.018;2024-03-02T07:11:37;13.31;;;13.16;;
23668;SDS011;12011;47.422;15.018;2024-03-02T07:14:06;12.99;;;12.89;;
23668;SDS011;12011;47.422;15.018;2024-03-02T07:16:37;13.27;;;13.13;;
23668;SDS011;12011;47.422;15.018;2024-03-02T07:19:08;13.21;;;13.02;;
23668;SDS011;12011;47.422;15.018;2024-03-02T07:21:38;13.28;;;13.20;;
23668;SDS011;12011;47.422;15.018;2024-03-02T07:24:07;12.71;;;12.64;;
23668;SDS011;12011;47.422;15.018;2024-03-02T07:26:39;12.99;;;12.95;;
23668;SDS011;12011;47.422;15.018;2024-03-02T07:29:09;11.36;;;11.31;;
23668;SDS011;12011;47.422;15.018;2024-03-02T07:31:41;11.16;;;11.09;;
23668;SDS011;12011;47.422;15.018;2024-03-02T07:34:11;11.56;;;11.49;;
23668;SDS011;12011;47.422;15.018;2024-03-02T07:36:40;10.69;;;10.60;;
23668;SDS011;12011;47.422;15.018;2024-03-02T07:39:07;9.31;;;9.28;;
23668;SDS011;12011;47.422;15.018;2024-03-02T07:41:37;8.71;;;8.71;;
23668;SDS011;12011;47.422;15.018;2024-03-02T07:44:06;8.87;;;8.86;;
23668;SDS011;12011;47.422;15.018;2024-03-02T07:46:36;8.73;;;8.71;;
23668;SDS011;12011;47.422;15.018;2024-03-02T07:49:08;8.26;;;8.20;;
23668;SDS011;12011;47.422;15.018;2024-03-02T07:51:38;7.78;;;7.77;;
23668;SDS011;12011;47.422;15.018;2024-03-02T07:54:08;8.20;;;8.17;;
23668;SDS011;12011;47.422;15.018;2024-03-02T07:56:38;8.09;;;8.09;;
23668;SDS011;12011;47.422;15.018;2024-03-02T07:59:07;8.20;;;8.20;;
23668;SDS011;12011;47.422;15.018;2024-03-02T08:01:37;7.77;;;7.77;;
23668;SDS011;12011;47.422;15.018;2024-03-02T08:04:09;7.41;;;7.39;;
23668;SDS011;12011;47.422;15.018;2024-03-02T08:06:39;7.24;;;7.24;;
23668;SDS011;12011;47.422;15.018;2024-03-02T08:09:09;7.52;;;7.51;;
23668;SDS011;12011;47.422;15.018;2024-03-02T08:11:40;7.71;;;7.64;;
23668;SDS011;12011;47.422;15.018;2024-03-02T08:14:10;7.51;;;7.51;;
23668;SDS011;12011;47.422;15.018;2024-03-02T08:16:39;8.78;;;8.78;;
23668;SDS011;12011;47.422;15.018;2024-03-02T08:19:12;8.71;;;8.70;;
23668;SDS011;12011;47.422;15.018;2024-03-02T08:21:45;7.97;;;7.97;;
23668;SDS011;12011;47.422;15.018;2024-03-02T08:24:14;8.46;;;8.46;;
23668;SDS011;12011;47.422;15.018;2024-03-02T08:26:47;8.12;;;8.12;;
23668;SDS011;12011;47.422;15.018;2024-03-02T08:29:16;6.29;;;6.29;;
23668;SDS011;12011;47.422;15.018;2024-03-02T08:31:45;4.55;;;4.55;;
23668;SDS011;12011;47.422;15.018;2024-03-02T08:34:17;4.54;;;4.54;;
23668;SDS011;12011;47.422;15.018;2024-03-02T08:36:47;4.50;;;4.50;;
23668;SDS011;12011;47.422;15.018;2024-03-02T08:39:17;4.21;;;4.16;;
23668;SDS011;12011;47.422;15.018;2024-03-02T08:41:46;4.14;;;4.13;;
23668;SDS011;12011;47.422;15.018;2024-03-02T08:44:16;4.23;;;4.23;;
23668;SDS011;12011;47.422;15.018;2024-03-02T08:46:47;4.55;;;4.55;;
23668;SDS011;12011;47.422;15.018;2024-03-02T08:49:19;4.60;;;4.60;;
23668;SDS011;12011;47.422;15.018;2024-03-02T08:51:49;4.48;;;4.48;;
23668;SDS011;12011;47.422;15.018;2024-03-02T08:54:20;4.30;;;4.30;;
23668;SDS011;12011;47.422;15.018;2024-03-02T08:56:49;4.35;;;4.35;;
23668;SDS011;12011;47.422;15.018;2024-03-02T08:59:19;4.33;;;4.33;;
23668;SDS011;12011;47.422;15.018;2024-03-02T09:01:50;4.50;;;4.50;;
23668;SDS011;12011;47.422;15.018;2024-03-02T09:04:22;4.56;;;4.56;;
23668;SDS011;12011;47.422;15.018;2024-03-02T09:06:52;4.65;;;4.65;;
23668;SDS011;12011;47.422;15.018;2024-03-02T09:09:21;4.72;;;4.72;;
23668;SDS011;12011;47.422;15.018;2024-03-02T09:11:51;4.63;;;4.63;;
23668;SDS011;12011;47.422;15.018;2024-03-02T09:14:23;4.81;;;4.81;;
23668;SDS011;12011;47.422;15.018;2024-03-02T09:16:52;4.70;;;4.70;;
23668;SDS011;12011;47.422;15.018;2024-03-02T09:19:25;4.55;;;4.55;;
23668;SDS011;12011;47.422;15.018;2024-03-02T09:21:54;4.29;;;4.28;;
23668;SDS011;12011;47.422;15.018;2024-03-02T09:24:24;4.26;;;4.26;;
23668;SDS011;12011;47.422;15.018;2024-03-02T09:26:53;4.19;;;4.19;;
23668;SDS011;12011;47.422;15.018;2024-03-02T09:29:23;4.00;;;4.00;;
23668;SDS011;12011;47.422;15.018;2024-03-02T09:31:52;4.10;;;4.10;;
23668;SDS011;12011;47.422;15.018;2024-03-02T09:34:21;4.48;;;4.48;;
23668;SDS011;12011;47.422;15.018;2024-03-02T09:36:53;4.41;;;4.41;;
23668;SDS011;12011;47.422;15.018;2024-03-02T09:39:23;4.14;;;4.14;;
23668;SDS011;12011;47.422;15.018;2024-03-02T09:41:53;4.07;;;4.07;;
23668;SDS011;12011;47.422;15.018;2024-03-02T09:44:22;3.82;;;3.82;;
23668;SDS011;12011;47.422;15.018;2024-03-02T09:46:53;3.90;;;3.90;;
23668;SDS011;12011;47.422;15.018;2024-03-02T09:49:25;4.04;;;4.04;;
23668;SDS011;12011;47.422;15.018;2024-03-02T09:51:55;3.68;;;3.68;;
23668;SDS011;12011;47.422;15.018;2024-03-02T09:54:25;3.74;;;3.74;;
23668;SDS011;12011;47.422;15.018;2024-03-02T09:56:54;3.76;;;3.76;;
23668;SDS011;12011;47.422;15.018;2024-03-02T09:59:24;4.28;;;4.28;;
23668;SDS011;12011;47.422;15.018;2024-03-02T10:01:57;3.46;;;3.46;;
23668;SDS011;12011;47.422;15.018;2024-03-02T10:04:30;3.56;;;3.56;;
23668;SDS011;12011;47.422;15.018;2024-03-02T10:07:11;3.43;;;3.43;;
23668;SDS011;12011;47.422;15.018;2024-03-02T10:09:43;3.21;;;3.21;;
23668;SDS011;12011;47.422;15.018;2024-03-02T10:12:14;3.28;;;3.28;;
23668;SDS011;12011;47.422;15.018;2024-03-02T10:14:45;3.75;;;3.75;;
23668;SDS011;12011;47.422;15.018;2024-03-02T10:17:17;3.37;;;3.37;;
23668;SDS011;12011;47.422;15.018;2024-03-02T10:19:49;3.15;;;3.15;;
23668;SDS011;12011;47.422;15.018;2024-03-02T10:22:19;3.21;;;3.21;;
23668;SDS011;12011;47.422;15.018;2024-03-02T10:24:52;3.38;;;3.38;;
23668;SDS011;12011;47.422;15.018;2024-03-02T10:27:22;3.01;;;3.00;;
23668;SDS011;12011;47.422;15.018;2024-03-02T10:29:56;3.36;;;3.36;;
23668;SDS011;12011;47.422;15.018;2024-03-02T10:32:26;3.21;;;3.21;;
23668;SDS011;12011;47.422;15.018;2024-03-02T10:34:58;3.12;;;3.12;;
23668;SDS011;12011;47.422;15.018;2024-03-02T10:37:29;2.86;;;2.86;;
23668;SDS011;12011;47.422;15.018;2024-03-02T10:40:03;2.63;;;2.63;;
23668;SDS011;12011;47.422;15.018;2024-03-02T10:42:34;2.52;;;2.52;;
23668;SDS011;12011;47.422;15.018;2024-03-02T10:45:08;2.58;;;2.58;;
23668;SDS011;12011;47.422;15.018;2024-03-02T10:47:38;2.28;;;2.28;;
23668;SDS011;12011;47.422;15.018;2024-03-02T10:50:13;2.58;;;2.58;;
23668;SDS011;12011;47.422;15.018;2024-03-02T10:52:42;2.40;;;2.40;;
23668;SDS011;12011;47.422;15.018;2024-03-02T10:55:12;2.59;;;2.59;;
23668;SDS011;12011;47.422;15.018;2024-03-02T10:57:42;2.48;;;2.48;;
23668;SDS011;12011;47.422;15.018;2024-03-02T11:00:20;2.33;;;2.33;;
23668;SDS011;12011;47.422;15.018;2024-03-02T11:02:55;2.39;;;2.39;;
23668;SDS011;12011;47.422;15.018;2024-03-02T11:05:31;2.15;;;2.15;;
23668;SDS011;12011;47.422;15.018;2024-03-02T11:08:06;2.35;;;2.35;;
23668;SDS011;12011;47.422;15.018;2024-03-02T11:10:38;2.11;;;2.11;;
23668;SDS011;12011;47.422;15.018;2024-03-02T11:13:22;2.14;;;2.14;;
23668;SDS011;12011;47.422;15.018;2024-03-02T11:16:03;2.39;;;2.39;;
23668;SDS011;12011;47.422;15.018;2024-03-02T11:18:49;2.12;;;2.12;;
23668;SDS011;12011;47.422;15.018;2024-03-02T11:21:22;1.58;;;1.58;;
23668;SDS011;12011;47.422;15.018;2024-03-02T11:23:55;1.65;;;1.65;;
23668;SDS011;12011;47.422;15.018;2024-03-02T11:26:25;1.47;;;1.47;;
23668;SDS011;12011;47.422;15.018;2024-03-02T11:28:56;1.57;;;1.57;;
23668;SDS011;12011;47.422;15.018;2024-03-02T11:34:29;1.63;;;1.63;;
23668;SDS011;12011;47.422;15.018;2024-03-02T11:37:03;1.90;;;1.90;;
23668;SDS011;12011;47.422;15.018;2024-03-02T11:39:37;2.07;;;2.07;;
23668;SDS011;12011;47.422;15.018;2024-03-02T11:42:07;1.84;;;1.84;;
23668;SDS011;12011;47.422;15.018;2024-03-02T11:44:41;1.70;;;1.70;;
23668;SDS011;12011;47.422;15.018;2024-03-02T11:47:16;1.71;;;1.71;;
23668;SDS011;12011;47.422;15.018;2024-03-02T11:49:51;1.60;;;1.60;;
23668;SDS011;12011;47.422;15.018;2024-03-02T11:52:27;1.41;;;1.41;;
23668;SDS011;12011;47.422;15.018;2024-03-02T11:55:01;1.34;;;1.34;;
23668;SDS011;12011;47.422;15.018;2024-03-02T11:57:34;1.21;;;1.21;;
23668;SDS011;12011;47.422;15.018;2024-03-02T12:00:16;0.94;;;0.94;;
23668;SDS011;12011;47.422;15.018;2024-03-02T12:02:59;0.96;;;0.96;;
23668;SDS011;12011;47.422;15.018;2024-03-02T12:05:35;1.07;;;1.07;;
23668;SDS011;12011;47.422;15.018;2024-03-02T12:08:21;1.04;;;1.04;;
23668;SDS011;12011;47.422;15.018;2024-03-02T12:10:55;0.86;;;0.86;;
23668;SDS011;12011;47.422;15.018;2024-03-02T12:13:27;0.80;;;0.80;;
23668;SDS011;12011;47.422;15.018;2024-03-02T12:15:56;1.02;;;1.02;;
23668;SDS011;12011;47.422;15.018;2024-03-02T12:18:25;0.91;;;0.91;;
23668;SDS011;12011;47.422;15.018;2024-03-02T12:20:55;0.91;;;0.91;;
23668;SDS011;12011;47.422;15.018;2024-03-02T12:23:27;0.90;;;0.90;;
23668;SDS011;12011;47.422;15.018;2024-03-02T12:25:57;0.82;;;0.82;;
23668;SDS011;12011;47.422;15.018;2024-03-02T12:28:27;0.92;;;0.92;;
23668;SDS011;12011;47.422;15.018;2024-03-02T12:30:56;0.85;;;0.85;;
23668;SDS011;12011;47.422;15.018;2024-03-02T12:33:26;0.99;;;0.99;;
23668;SDS011;12011;47.422;15.018;2024-03-02T12:35:57;1.59;;;1.59;;
23668;SDS011;12011;47.422;15.018;2024-03-02T12:38:29;2.00;;;2.00;;
23668;SDS011;12011;47.422;15.018;2024-03-02T12:41:04;2.13;;;2.13;;
23668;SDS011;12011;47.422;15.018;2024-03-02T12:43:38;1.96;;;1.96;;
23668;SDS011;12011;47.422;15.018;2024-03-02T12:46:12;1.92;;;1.92;;
23668;SDS011;12011;47.422;15.018;2024-03-02T12:48:45;1.89;;;1.89;;
23668;SDS011;12011;47.422;15.018;2024-03-02T12:51:20;1.82;;;1.82;;
23668;SDS011;12011;47.422;15.018;2024-03-02T12:53:55;2.07;;;2.07;;
23668;SDS011;12011;47.422;15.018;2024-03-02T12:56:26;2.32;;;2.32;;
23668;SDS011;12011;47.422;15.018;2024-03-02T12:58:58;1.96;;;1.96;;
23668;SDS011;12011;47.422;15.018;2024-03-02T13:01:31;2.01;;;2.01;;
23668;SDS011;12011;47.422;15.018;2024-03-02T13:04:01;2.02;;;2.02;;
23668;SDS011;12011;47.422;15.018;2024-03-02T13:06:33;1.82;;;1.82;;
23668;SDS011;12011;47.422;15.018;2024-03-02T13:09:06;1.96;;;1.96;;
23668;SDS011;12011;47.422;15.018;2024-03-02T13:11:42;2.01;;;2.01;;
23668;SDS011;12011;47.422;15.018;2024-03-02T13:14:12;2.24;;;2.24;;
23668;SDS011;12011;47.422;15.018;2024-03-02T13:16:42;2.15;;;2.15;;
23668;SDS011;12011;47.422;15.018;2024-03-02T13:19:18;2.53;;;2.53;;
23668;SDS011;12011;47.422;15.018;2024-03-02T13:21:47;2.36;;;2.36;;
23668;SDS011;12011;47.422;15.018;2024-03-02T13:24:19;2.15;;;2.15;;
23668;SDS011;12011;47.422;15.018;2024-03-02T13:26:51;2.00;;;2.00;;
23668;SDS011;12011;47.422;15.018;2024-03-02T13:29:22;2.17;;;2.17;;
23668;SDS011;12011;47.422;15.018;2024-03-02T13:31:53;2.34;;;2.34;;
23668;SDS011;12011;47.422;15.018;2024-03-02T13:34:23;2.33;;;2.33;;
23668;SDS011;12011;47.422;15.018;2024-03-02T13:36:52;2.13;;;2.13;;
23668;SDS011;12011;47.422;15.018;2024-03-02T13:39:24;2.11;;;2.11;;
23668;SDS011;12011;47.422;15.018;2024-03-02T13:41:56;2.01;;;2.01;;
23668;SDS011;12011;47.422;15.018;2024-03-02T13:44:29;2.20;;;2.20;;
23668;SDS011;12011;47.422;15.018;2024-03-02T13:46:59;2.37;;;2.37;;
23668;SDS011;12011;47.422;15.018;2024-03-02T13:49:29;2.21;;;2.21;;
23668;SDS011;12011;47.422;15.018;2024-03-02T13:52:02;2.15;;;2.15;;
23668;SDS011;12011;47.422;15.018;2024-03-02T13:54:39;2.29;;;2.29;;
23668;SDS011;12011;47.422;15.018;2024-03-02T13:57:10;2.18;;;2.17;;
23668;SDS011;12011;47.422;15.018;2024-03-02T13:59:42;2.13;;;2.11;;
23668;SDS011;12011;47.422;15.018;2024-03-02T14:02:11;2.32;;;2.29;;
23668;SDS011;12011;47.422;15.018;2024-03-02T14:04:41;2.16;;;2.15;;
23668;SDS011;12011;47.422;15.018;2024-03-02T14:07:11;2.18;;;2.18;;
23668;SDS011;12011;47.422;15.018;2024-03-02T14:09:43;2.16;;;2.15;;
23668;SDS011;12011;47.422;15.018;2024-03-02T14:12:12;2.30;;;2.30;;
23668;SDS011;12011;47.422;15.018;2024-03-02T14:14:41;2.50;;;2.50;;
23668;SDS011;12011;47.422;15.018;2024-03-02T14:17:11;2.96;;;2.96;;
23668;SDS011;12011;47.422;15.018;2024-03-02T14:19:41;2.80;;;2.80;;
23668;SDS011;12011;47.422;15.018;2024-03-02T14:22:10;2.81;;;2.81;;
23668;SDS011;12011;47.422;15.018;2024-03-02T14:24:45;3.00;;;3.00;;
23668;SDS011;12011;47.422;15.018;2024-03-02T14:27:16;2.86;;;2.86;;
23668;SDS011;12011;47.422;15.018;2024-03-02T14:29:46;2.66;;;2.66;;
23668;SDS011;12011;47.422;15.018;2024-03-02T14:32:16;2.50;;;2.50;;
23668;SDS011;12011;47.422;15.018;2024-03-02T14:34:45;2.21;;;2.21;;
23668;SDS011;12011;47.422;15.018;2024-03-02T14:37:14;1.81;;;1.81;;
23668;SDS011;12011;47.422;15.018;2024-03-02T14:39:49;1.69;;;1.69;;
23668;SDS011;12011;47.422;15.018;2024-03-02T14:42:20;1.76;;;1.76;;
23668;SDS011;12011;47.422;15.018;2024-03-02T14:44:50;1.78;;;1.78;;
23668;SDS011;12011;47.422;15.018;2024-03-02T14:47:19;2.06;;;2.06;;
23668;SDS011;12011;47.422;15.018;2024-03-02T14:49:50;2.23;;;2.23;;
23668;SDS011;12011;47.422;15.018;2024-03-02T14:52:19;2.22;;;2.22;;
23668;SDS011;12011;47.422;15.018;2024-03-02T14:54:51;2.21;;;2.21;;
23668;SDS011;12011;47.422;15.018;2024-03-02T14:57:21;2.00;;;2.00;;
23668;SDS011;12011;47.422;15.018;2024-03-02T14:59:50;2.20;;;2.20;;
23668;SDS011;12011;47.422;15.018;2024-03-02T15:02:20;2.44;;;2.44;;
23668;SDS011;12011;47.422;15.018;2024-03-02T15:04:50;2.61;;;2.61;;
23668;SDS011;12011;47.422;15.018;2024-03-02T15:07:19;2.74;;;2.74;;